Time;durP1;ratioP1;P1;durP2;ratioP2;P2;SDS_P1;SDS_P2;PMS_P1;PMS_P2;Temp;Humidity;BMP_temperature;BMP_pressure;BME280_temperature;BME280_humidity;BME280_pressure;Samples;Min_cycle;Max_cycle;Signal;HPM_P1;HPM_P2
2024/03/24 14:02:58;;;;;;;3.53;1.67;;;21.60;63.60;;;;;;5533980;22;20869;-89
2024/03/24 14:07:53;;;;;;;2.40;1.17;;;21.60;63.80;;;;;;5071862;28;20534;-92
2024/03/24 14:10:20;;;;;;;2.40;1.50;;;21.70;63.60;;;;;;5073439;28;20440;-89
2024/03/24 14:13:00;;;;;;;4.47;1.40;;;21.60;63.50;;;;;;5073776;28;20479;-93
2024/03/24 14:15:34;;;;;;;1.90;1.10;;;21.70;63.60;;;;;;5073368;28;20945;-89
2024/03/24 14:18:12;;;;;;;2.80;1.90;;;21.70;63.80;;;;;;5073374;28;20491;-91
2024/03/24 14:20:48;;;;;;;3.27;1.57;;;21.70;63.60;;;;;;5073383;28;20472;-89
2024/03/24 14:23:23;;;;;;;3.17;1.47;;;21.60;63.40;;;;;;5073426;28;20894;-92
2024/03/24 14:25:55;;;;;;;2.00;1.33;;;21.70;63.50;;;;;;5072869;28;20436;-90
2024/03/24 14:28:22;;;;;;;2.93;1.63;;;21.70;63.40;;;;;;5074012;28;20438;-89
2024/03/24 14:30:48;;;;;;;2.30;1.70;;;21.80;63.60;;;;;;5074088;28;20531;-89
2024/03/24 14:33:16;;;;;;;2.50;1.20;;;21.80;63.70;;;;;;5074428;28;20536;-93
2024/03/24 14:35:54;;;;;;;2.50;1.40;;;21.70;63.40;;;;;;5074236;28;20201;-90
2024/03/24 14:38:28;;;;;;;2.60;1.70;;;21.70;63.30;;;;;;5074154;28;20479;-89
2024/03/24 14:41:10;;;;;;;3.60;1.43;;;21.70;63.40;;;;;;5074659;28;20439;-89
2024/03/24 14:43:56;;;;;;;1.90;1.20;;;21.70;63.30;;;;;;5074500;28;20448;-89
2024/03/24 14:46:35;;;;;;;2.73;1.40;;;21.70;63.30;;;;;;5073929;28;20440;-90
2024/03/24 14:49:04;;;;;;;1.97;1.20;;;21.70;63.50;;;;;;5074094;28;20479;-89
2024/03/24 14:51:30;;;;;;;2.20;1.20;;;21.80;63.40;;;;;;5074190;28;20544;-89
2024/03/24 14:53:57;;;;;;;1.77;1.03;;;21.70;63.30;;;;;;5074007;28;20443;-88
2024/03/24 14:56:24;;;;;;;1.70;1.13;;;21.70;63.50;;;;;;5073982;28;20437;-89
2024/03/24 14:58:51;;;;;;;2.70;1.43;;;21.70;63.30;;;;;;5074176;28;20472;-90
2024/03/24 15:01:17;;;;;;;6.03;1.60;;;21.70;63.40;;;;;;5073613;28;20448;-89
2024/03/24 15:03:44;;;;;;;2.97;1.17;;;21.70;63.30;;;;;;5073718;28;20447;-90
2024/03/24 15:06:11;;;;;;;3.20;1.17;;;21.70;63.40;;;;;;5074129;28;20472;-89
2024/03/24 15:08:38;;;;;;;2.70;1.43;;;21.80;63.40;;;;;;5074192;28;20441;-89
2024/03/24 15:11:04;;;;;;;2.40;1.20;;;21.70;63.30;;;;;;5073676;28;20443;-89
2024/03/24 15:13:31;;;;;;;2.80;1.83;;;21.70;63.50;;;;;;5074169;28;20514;-93
2024/03/24 15:15:57;;;;;;;1.93;1.23;;;21.70;63.50;;;;;;5073555;28;20800;-89
2024/03/24 15:18:24;;;;;;;2.93;1.77;;;21.70;63.50;;;;;;5074019;28;20480;-89
2024/03/24 15:20:52;;;;;;;2.60;1.47;;;21.70;63.50;;;;;;5073578;28;20685;-90
2024/03/24 15:23:20;;;;;;;3.20;1.30;;;21.70;63.70;;;;;;5078453;28;20444;-89
2024/03/24 15:25:46;;;;;;;2.10;1.30;;;21.70;63.30;;;;;;5077666;28;20539;-89
2024/03/24 15:28:12;;;;;;;3.57;1.60;;;21.60;63.50;;;;;;5077400;28;20543;-89
2024/03/24 15:30:38;;;;;;;1.90;1.27;;;21.60;63.40;;;;;;5077926;28;20202;-90
2024/03/24 15:33:05;;;;;;;3.43;1.30;;;21.60;63.50;;;;;;5077576;28;20436;-89
2024/03/24 15:35:33;;;;;;;2.23;1.40;;;21.70;63.70;;;;;;5078381;28;20204;-89
2024/03/24 15:38:00;;;;;;;3.20;1.53;;;21.60;63.50;;;;;;5077261;28;20479;-89
2024/03/24 15:40:27;;;;;;;1.70;1.00;;;21.60;63.70;;;;;;5077649;28;20853;-89
2024/03/24 15:42:55;;;;;;;2.37;1.17;;;21.60;63.60;;;;;;5077720;28;20436;-90
2024/03/24 15:45:20;;;;;;;5.17;1.77;;;21.60;63.80;;;;;;5077577;28;20444;-89
2024/03/24 15:47:48;;;;;;;2.90;1.53;;;21.70;63.80;;;;;;5077668;28;20448;-89
2024/03/24 15:50:14;;;;;;;2.40;1.23;;;21.60;63.40;;;;;;5077333;28;20469;-90
2024/03/24 15:52:40;;;;;;;1.90;1.23;;;21.60;63.30;;;;;;5077599;28;20443;-89
2024/03/24 15:55:07;;;;;;;2.10;1.27;;;21.60;63.60;;;;;;5077349;28;20440;-90
2024/03/24 15:57:50;;;;;;;1.80;1.13;;;21.60;63.60;;;;;;5077230;28;20472;-90
2024/03/24 16:00:21;;;;;;;3.20;1.30;;;21.60;63.40;;;;;;5077856;28;20444;-90
2024/03/24 16:02:52;;;;;;;2.43;1.20;;;21.70;63.60;;;;;;5077079;28;20444;-90
2024/03/24 16:05:23;;;;;;;2.10;1.27;;;21.60;63.30;;;;;;5077229;28;20647;-92
2024/03/24 16:07:51;;;;;;;2.03;1.20;;;21.60;63.50;;;;;;5096777;28;21017;-89
2024/03/24 16:10:49;;;;;;;1.50;0.97;;;21.70;63.80;;;;;;5096739;28;20447;-90
2024/03/24 16:13:25;;;;;;;1.97;1.10;;;21.60;63.50;;;;;;5096191;28;20471;-88
2024/03/24 16:15:52;;;;;;;2.30;1.50;;;21.60;63.80;;;;;;5097358;28;20439;-89
2024/03/24 16:18:18;;;;;;;1.60;1.10;;;21.70;63.70;;;;;;5096806;28;20475;-88
2024/03/24 16:20:59;;;;;;;3.00;1.23;;;21.60;63.70;;;;;;5101561;28;20440;-88
2024/03/24 16:23:27;;;;;;;2.33;1.30;;;21.60;63.70;;;;;;5121415;28;20443;-89
2024/03/24 16:25:52;;;;;;;1.67;0.97;;;21.60;63.70;;;;;;5118831;28;20436;-88
2024/03/24 16:28:23;;;;;;;2.30;1.17;;;21.60;63.60;;;;;;5097019;28;20527;-89
2024/03/24 16:30:49;;;;;;;2.77;1.10;;;21.60;63.60;;;;;;5096991;28;20280;-89
2024/03/24 16:33:18;;;;;;;2.47;1.10;;;21.70;63.70;;;;;;5095919;28;20446;-89
2024/03/24 16:35:45;;;;;;;2.03;1.17;;;21.60;63.70;;;;;;5097063;28;20935;-88
2024/03/24 16:38:12;;;;;;;3.80;1.40;;;21.60;63.70;;;;;;5096798;28;20564;-89
2024/03/24 16:40:37;;;;;;;5.63;1.20;;;21.60;63.60;;;;;;5096674;28;20927;-90
2024/03/24 16:43:04;;;;;;;2.47;1.30;;;21.60;63.60;;;;;;5097528;28;20469;-89
2024/03/24 16:45:33;;;;;;;2.60;1.20;;;21.60;63.70;;;;;;5097064;28;20443;-88
2024/03/24 16:48:01;;;;;;;3.70;1.50;;;21.60;63.60;;;;;;5096830;28;20532;-88
2024/03/24 16:50:26;;;;;;;2.57;1.00;;;21.60;63.60;;;;;;5096180;28;20470;-89
2024/03/24 16:52:53;;;;;;;3.37;1.70;;;21.60;63.50;;;;;;5104985;28;20533;-89
2024/03/24 16:55:19;;;;;;;2.43;1.30;;;21.60;63.70;;;;;;5099690;28;20276;-89
2024/03/24 16:57:46;;;;;;;1.90;1.00;;;21.60;63.50;;;;;;5096392;28;20590;-89
2024/03/24 17:00:13;;;;;;;2.07;1.20;;;21.60;63.70;;;;;;5096248;28;20197;-89
2024/03/24 17:02:41;;;;;;;2.90;1.30;;;21.50;63.50;;;;;;5096239;28;20443;-89
2024/03/24 17:05:07;;;;;;;1.67;1.10;;;21.60;63.50;;;;;;5096798;28;20439;-88
2024/03/24 17:07:34;;;;;;;3.70;1.27;;;21.50;63.30;;;;;;5095336;28;20806;-88
2024/03/24 17:10:01;;;;;;;2.43;1.10;;;21.60;63.30;;;;;;5095766;28;20443;-88
2024/03/24 17:12:28;;;;;;;2.17;1.13;;;21.50;63.30;;;;;;5095794;28;20930;-89
2024/03/24 17:14:53;;;;;;;1.90;1.30;;;21.60;63.20;;;;;;5096225;28;20440;-90
2024/03/24 17:17:20;;;;;;;1.73;1.00;;;21.50;63.00;;;;;;5096202;28;20446;-89
2024/03/24 17:19:47;;;;;;;2.27;1.00;;;21.50;63.00;;;;;;5095976;28;20213;-88
2024/03/24 17:22:14;;;;;;;2.57;1.30;;;21.50;62.90;;;;;;5098922;28;20447;-91
2024/03/24 17:24:40;;;;;;;1.77;1.00;;;21.50;62.90;;;;;;5098418;28;20528;-91
2024/03/24 17:27:07;;;;;;;1.80;1.17;;;21.50;62.80;;;;;;5099044;28;20471;-88
2024/03/24 17:29:33;;;;;;;5.17;1.50;;;21.50;62.70;;;;;;5098800;28;20285;-89
2024/03/24 17:32:00;;;;;;;2.30;1.00;;;21.50;62.80;;;;;;5097905;28;20478;-94
2024/03/24 17:34:26;;;;;;;2.60;1.20;;;21.50;63.00;;;;;;5097386;28;20440;-89
2024/03/24 17:36:55;;;;;;;2.47;1.00;;;21.50;62.80;;;;;;5098320;28;20440;-91
2024/03/24 17:39:20;;;;;;;2.73;1.10;;;21.50;62.70;;;;;;5095643;28;20221;-93
2024/03/24 17:41:47;;;;;;;4.93;1.10;;;21.50;62.80;;;;;;5105953;28;20544;-86
2024/03/24 17:44:13;;;;;;;1.80;1.17;;;21.50;62.70;;;;;;5104903;28;20203;-87
2024/03/24 17:46:40;;;;;;;3.20;1.00;;;21.50;62.80;;;;;;5107775;28;20503;-85
2024/03/24 17:49:06;;;;;;;2.47;1.00;;;21.50;62.80;;;;;;5096230;28;20243;-86
2024/03/24 17:51:34;;;;;;;5.53;1.03;;;21.50;62.80;;;;;;5078830;28;20520;-84
2024/03/24 17:54:01;;;;;;;2.73;1.20;;;21.50;63.70;;;;;;5095087;28;20462;-85
2024/03/24 17:56:28;;;;;;;1.80;1.00;;;21.50;62.90;;;;;;5094652;28;20448;-89
2024/03/24 17:58:54;;;;;;;2.60;1.00;;;21.50;63.00;;;;;;5095598;28;20814;-85
2024/03/24 18:01:21;;;;;;;2.57;1.50;;;21.40;62.90;;;;;;5096921;28;20447;-87
2024/03/24 18:03:46;;;;;;;2.90;1.30;;;21.50;63.10;;;;;;5101912;28;20204;-92
2024/03/24 18:06:14;;;;;;;1.60;0.90;;;21.40;62.90;;;;;;5098516;28;20895;-95
2024/03/24 18:11:26;;;;;;;2.47;1.20;;;21.40;62.80;;;;;;5096753;28;20806;-82
2024/03/24 18:13:54;;;;;;;3.17;1.47;;;21.40;62.90;;;;;;5081343;28;20944;-90
2024/03/24 18:26:00;;;;;;;1.90;0.80;;;21.40;63.20;;;;;;5083208;22;20501;-88
2024/03/24 18:28:27;;;;;;;5.93;1.47;;;21.40;63.20;;;;;;5094608;28;20440;-86
2024/03/24 18:30:54;;;;;;;3.03;1.20;;;21.40;63.20;;;;;;5094419;28;20519;-87
2024/03/24 18:39:00;;;;;;;2.37;1.10;;;21.60;63.90;;;;;;5783889;22;20457;-93
2024/03/24 18:41:34;;;;;;;3.20;1.43;;;21.50;62.80;;;;;;5041025;28;20488;-93
2024/03/24 19:10:53;;;;;;;3.17;1.67;;;22.30;61.30;;;;;;5927703;22;20864;-86
2024/03/24 19:13:19;;;;;;;3.57;1.10;;;22.40;61.30;;;;;;5053649;28;20515;-88
2024/03/24 19:15:45;;;;;;;4.60;1.37;;;22.50;59.90;;;;;;5053984;28;20441;-86
2024/03/24 19:18:11;;;;;;;3.27;1.40;;;22.50;60.10;;;;;;5053665;28;20569;-88
2024/03/24 19:20:38;;;;;;;2.40;1.10;;;22.60;60.50;;;;;;5053902;28;20544;-92
2024/03/24 19:23:04;;;;;;;10.40;1.60;;;22.70;60.60;;;;;;5054086;28;20201;-88
2024/03/24 19:25:30;;;;;;;3.00;1.53;;;22.70;61.10;;;;;;5054049;28;20445;-86
2024/03/24 19:27:57;;;;;;;3.13;1.53;;;22.80;61.50;;;;;;5053808;28;20566;-88
2024/03/24 19:30:25;;;;;;;6.93;1.27;;;22.80;61.60;;;;;;5053654;28;20974;-89
2024/03/24 19:32:51;;;;;;;4.03;1.20;;;22.90;61.80;;;;;;5054018;28;20450;-89
2024/03/24 19:35:17;;;;;;;2.53;1.13;;;22.90;61.70;;;;;;5077295;28;20433;-88
2024/03/24 19:37:43;;;;;;;5.60;1.13;;;22.90;61.60;;;;;;5077289;28;20429;-91
2024/03/24 19:40:11;;;;;;;3.33;1.20;;;22.90;61.50;;;;;;5058435;28;20845;-88
2024/03/24 19:42:37;;;;;;;3.93;1.17;;;22.90;61.50;;;;;;5053713;28;20205;-92
2024/03/24 19:45:07;;;;;;;2.93;1.13;;;23.00;61.70;;;;;;5053797;28;20433;-87
2024/03/24 19:47:33;;;;;;;2.20;1.23;;;23.00;61.10;;;;;;5053704;28;20201;-88
2024/03/24 19:49:59;;;;;;;3.20;1.13;;;23.00;61.70;;;;;;5053600;28;20468;-87
2024/03/24 19:52:25;;;;;;;3.30;1.30;;;23.00;61.60;;;;;;5053762;28;20436;-92
2024/03/24 19:54:52;;;;;;;9.37;1.53;;;23.10;61.60;;;;;;5053440;28;20438;-89
2024/03/24 19:57:20;;;;;;;3.43;1.30;;;23.10;61.60;;;;;;5053453;28;20202;-86
2024/03/24 19:59:47;;;;;;;2.00;1.03;;;23.00;61.30;;;;;;5053083;28;20534;-87
2024/03/24 20:02:14;;;;;;;2.23;1.17;;;23.00;61.40;;;;;;5053685;28;20452;-89
2024/03/24 20:04:41;;;;;;;4.07;1.30;;;23.00;61.40;;;;;;5053546;28;20655;-92
2024/03/24 20:07:06;;;;;;;3.17;1.03;;;23.00;61.30;;;;;;5054104;28;20441;-92
2024/03/24 20:09:34;;;;;;;2.73;1.20;;;23.10;61.40;;;;;;5056767;28;20814;-88
2024/03/24 20:12:03;;;;;;;6.03;1.13;;;23.10;61.20;;;;;;5056633;28;20223;-88
2024/03/24 20:14:30;;;;;;;2.93;1.20;;;23.20;61.20;;;;;;5056632;28;20462;-90
2024/03/24 20:16:56;;;;;;;2.90;1.43;;;23.10;61.10;;;;;;5056788;28;20998;-88
2024/03/24 20:19:24;;;;;;;2.70;1.30;;;23.10;61.00;;;;;;5056152;28;20481;-88
2024/03/24 20:21:50;;;;;;;2.07;1.07;;;23.10;61.10;;;;;;5057184;28;20264;-88
2024/03/24 20:24:17;;;;;;;2.57;1.50;;;23.20;60.90;;;;;;5058534;28;20519;-89
2024/03/24 20:26:43;;;;;;;2.93;1.23;;;23.20;61.00;;;;;;5057924;28;20445;-89
2024/03/24 20:29:09;;;;;;;3.27;1.43;;;23.20;60.90;;;;;;5057843;28;20437;-90
2024/03/24 20:31:35;;;;;;;3.20;1.30;;;23.30;60.80;;;;;;5056337;28;20195;-89
2024/03/24 20:34:02;;;;;;;2.50;1.43;;;23.40;60.70;;;;;;5059136;28;20456;-88
2024/03/24 20:36:29;;;;;;;1.83;1.07;;;23.30;60.60;;;;;;5056789;28;20198;-90
2024/03/24 20:38:56;;;;;;;1.80;1.20;;;23.40;60.60;;;;;;5056882;28;20492;-90
2024/03/24 20:41:22;;;;;;;2.03;1.00;;;23.50;60.60;;;;;;5056535;28;20437;-87
2024/03/24 20:43:48;;;;;;;3.87;1.00;;;23.40;60.50;;;;;;5056193;28;20931;-94
2024/03/24 20:46:14;;;;;;;4.57;1.40;;;23.40;60.30;;;;;;5056177;28;20437;-87
2024/03/24 20:48:41;;;;;;;4.00;1.37;;;23.50;60.30;;;;;;5056032;28;21136;-86
2024/03/24 20:51:07;;;;;;;2.97;1.17;;;23.50;60.00;;;;;;5056000;28;20195;-88
2024/03/24 20:53:35;;;;;;;3.70;1.20;;;23.60;60.40;;;;;;5056309;28;20449;-86
2024/03/24 20:56:03;;;;;;;2.17;1.00;;;23.50;60.00;;;;;;5056064;28;20286;-86
2024/03/24 20:58:32;;;;;;;2.43;1.10;;;23.60;60.30;;;;;;5056132;28;20819;-87
2024/03/24 21:00:58;;;;;;;4.53;1.30;;;23.60;59.80;;;;;;5056658;28;20441;-86
2024/03/24 21:03:25;;;;;;;2.33;0.90;;;23.60;59.90;;;;;;5056912;28;20445;-88
2024/03/24 21:05:51;;;;;;;2.37;1.30;;;23.60;60.00;;;;;;5056904;28;20195;-91
2024/03/24 21:08:18;;;;;;;3.50;1.40;;;23.60;60.00;;;;;;5057995;28;20769;-91
2024/03/24 21:10:45;;;;;;;2.70;1.13;;;23.60;59.90;;;;;;5056945;28;20287;-89
2024/03/24 21:13:12;;;;;;;2.33;1.20;;;23.70;60.00;;;;;;5056648;28;20489;-88
2024/03/24 21:15:38;;;;;;;2.53;1.20;;;23.60;59.90;;;;;;5055933;28;20793;-90
2024/03/24 21:18:05;;;;;;;2.67;1.27;;;23.60;59.60;;;;;;5056549;28;20448;-89
2024/03/24 21:20:32;;;;;;;6.20;1.20;;;23.60;59.70;;;;;;5055832;28;20314;-89
2024/03/24 21:22:59;;;;;;;4.53;1.80;;;23.70;60.40;;;;;;5056566;28;20437;-89
2024/03/24 21:25:25;;;;;;;2.63;1.17;;;23.60;59.10;;;;;;5055712;28;20445;-88
2024/03/24 21:27:53;;;;;;;3.07;1.17;;;23.60;60.20;;;;;;5055640;28;20445;-89
2024/03/24 21:30:21;;;;;;;2.37;1.27;;;23.70;59.90;;;;;;5059491;28;20452;-89
2024/03/24 21:43:41;;;;;;;2.67;0.93;;;23.70;59.60;;;;;;5055436;28;20420;-93
2024/03/24 21:46:08;;;;;;;4.20;1.33;;;23.60;59.30;;;;;;5056427;28;20450;-94
2024/03/24 21:48:35;;;;;;;2.33;1.33;;;23.60;59.50;;;;;;5055739;28;20465;-90
2024/03/24 21:51:01;;;;;;;2.27;1.10;;;23.70;59.40;;;;;;5056033;28;20453;-90
2024/03/24 21:53:28;;;;;;;2.00;1.20;;;23.70;59.50;;;;;;5055603;28;20449;-90
2024/03/24 21:55:55;;;;;;;4.00;1.40;;;23.70;59.30;;;;;;5055410;28;20560;-89
2024/03/24 21:58:21;;;;;;;1.87;1.10;;;23.70;59.30;;;;;;5055252;28;20572;-89
2024/03/24 22:00:49;;;;;;;3.27;1.40;;;23.80;59.30;;;;;;5055279;28;20536;-89
2024/03/24 22:03:15;;;;;;;2.70;1.30;;;23.70;59.20;;;;;;5055004;28;20806;-91
2024/03/24 22:05:42;;;;;;;2.80;1.20;;;23.70;59.10;;;;;;5054796;28;20716;-90
2024/03/24 22:08:07;;;;;;;2.83;1.00;;;23.70;59.20;;;;;;5055456;28;20219;-93
2024/03/24 22:10:34;;;;;;;2.43;1.33;;;23.70;59.20;;;;;;5054895;28;20480;-94
2024/03/24 22:13:00;;;;;;;5.77;1.50;;;23.60;59.00;;;;;;5054952;28;20499;-89
2024/03/24 22:15:27;;;;;;;3.37;1.30;;;23.60;59.00;;;;;;5054918;28;20540;-90
2024/03/24 22:17:55;;;;;;;2.60;1.37;;;23.60;59.20;;;;;;5055096;28;20197;-90
2024/03/24 22:20:22;;;;;;;3.70;1.60;;;23.60;59.20;;;;;;5055172;28;20480;-90
2024/03/24 22:22:48;;;;;;;3.20;1.03;;;23.60;59.30;;;;;;5057189;28;20506;-90
2024/03/24 22:25:15;;;;;;;3.83;1.30;;;23.50;59.10;;;;;;5073992;28;20445;-89
2024/03/24 22:27:41;;;;;;;5.00;1.43;;;23.50;59.20;;;;;;5074343;28;20259;-90
2024/03/24 22:30:09;;;;;;;3.70;1.37;;;23.40;59.10;;;;;;5073605;28;20442;-94
2024/03/24 22:32:35;;;;;;;2.33;1.00;;;23.40;59.20;;;;;;5054393;28;20668;-89
2024/03/24 22:35:03;;;;;;;2.30;1.30;;;23.40;59.30;;;;;;5055250;28;20587;-93
2024/03/24 22:37:29;;;;;;;2.00;1.10;;;23.40;59.30;;;;;;5055297;28;20633;-89
2024/03/24 22:39:56;;;;;;;2.00;0.97;;;23.30;59.20;;;;;;5056666;28;20516;-92
2024/03/24 22:42:23;;;;;;;2.37;1.03;;;23.30;59.30;;;;;;5057662;28;20500;-90
2024/03/24 22:44:50;;;;;;;2.43;1.43;;;23.30;59.30;;;;;;5075059;28;20449;-90
2024/03/24 22:47:16;;;;;;;2.43;1.23;;;23.30;59.30;;;;;;5078515;28;20473;-91
2024/03/24 22:49:43;;;;;;;2.47;1.10;;;23.30;59.90;;;;;;5063622;28;20493;-90
2024/03/24 22:52:10;;;;;;;1.97;1.00;;;23.30;59.30;;;;;;5054536;28;20285;-91
2024/03/24 22:54:37;;;;;;;2.20;1.50;;;23.20;59.30;;;;;;5054922;28;20441;-92
2024/03/24 22:57:03;;;;;;;2.50;1.30;;;23.20;59.30;;;;;;5054190;28;20445;-89
2024/03/24 22:59:31;;;;;;;2.33;1.37;;;23.20;59.40;;;;;;5053898;28;20473;-89
2024/03/24 23:01:57;;;;;;;2.73;1.30;;;23.20;59.40;;;;;;5054449;28;20445;-94
2024/03/24 23:04:24;;;;;;;2.60;1.20;;;23.20;59.40;;;;;;5054352;28;20511;-89
2024/03/24 23:06:50;;;;;;;2.57;1.30;;;23.20;59.40;;;;;;5054158;28;20195;-90
2024/03/24 23:09:18;;;;;;;2.10;1.33;;;23.20;59.40;;;;;;5054277;28;20511;-89
2024/03/24 23:11:45;;;;;;;4.07;1.93;;;23.10;59.50;;;;;;5053871;28;20261;-88
2024/03/24 23:14:12;;;;;;;3.80;1.60;;;23.20;59.50;;;;;;5054292;28;20499;-91
2024/03/24 23:16:38;;;;;;;2.73;1.20;;;23.10;59.40;;;;;;5054399;28;20452;-88
2024/03/24 23:19:05;;;;;;;2.53;1.30;;;23.10;59.40;;;;;;5053773;28;20579;-90
2024/03/24 23:21:31;;;;;;;2.77;1.30;;;23.10;59.50;;;;;;5054594;28;20540;-90
2024/03/24 23:23:57;;;;;;;3.30;1.27;;;23.00;59.40;;;;;;5054478;28;20445;-90
2024/03/24 23:26:25;;;;;;;2.53;1.47;;;23.00;59.40;;;;;;5053972;28;20528;-90
2024/03/24 23:28:51;;;;;;;3.97;1.20;;;23.00;59.40;;;;;;5054294;28;20477;-90
2024/03/24 23:31:17;;;;;;;2.23;1.17;;;23.00;59.40;;;;;;5054026;28;20536;-94
2024/03/24 23:33:44;;;;;;;2.17;1.07;;;23.00;59.50;;;;;;5054371;28;20544;-91
2024/03/24 23:36:10;;;;;;;1.83;1.07;;;23.00;59.50;;;;;;5054446;28;20238;-91
2024/03/24 23:38:37;;;;;;;3.30;1.17;;;23.00;59.50;;;;;;5054429;28;20464;-94
2024/03/24 23:41:03;;;;;;;2.50;1.37;;;23.00;59.50;;;;;;5054272;28;20194;-94
2024/03/24 23:43:31;;;;;;;2.50;1.40;;;22.90;59.50;;;;;;5039403;28;20445;-95
2024/03/24 23:45:57;;;;;;;2.53;1.27;;;22.90;59.40;;;;;;5057830;28;20452;-90
2024/03/24 23:48:24;;;;;;;2.43;1.20;;;23.00;59.60;;;;;;5057556;28;20615;-95
2024/03/24 23:50:50;;;;;;;2.43;1.57;;;22.90;59.50;;;;;;5057770;28;21003;-91
2024/03/24 23:53:16;;;;;;;2.20;1.20;;;22.90;59.50;;;;;;5058050;28;20492;-91
2024/03/24 23:55:42;;;;;;;2.33;1.10;;;22.90;59.50;;;;;;5057647;28;20309;-90
2024/03/24 23:58:09;;;;;;;2.70;1.23;;;22.90;59.50;;;;;;5057836;28;20528;-91
